sensor_id;sensor_type;location;lat;lon;timestamp;pressure;altitude;pressure_sealevel;temperature;humidity
75538;BME280;64121;48.666;8.114;2023-08-20T00:01:21;100286.34;;;21.45;100.00
75538;BME280;64121;48.666;8.114;2023-08-20T00:03:47;100282.25;;;21.50;100.00
75538;BME280;64121;48.666;8.114;2023-08-20T00:06:15;100290.41;;;21.44;100.00
75538;BME280;64121;48.666;8.114;2023-08-20T00:08:40;100290.84;;;21.39;100.00
75538;BME280;64121;48.666;8.114;2023-08-20T00:11:06;100295.28;;;21.37;100.00
75538;BME280;64121;48.666;8.114;2023-08-20T00:13:31;100303.41;;;21.35;100.00
75538;BME280;64121;48.666;8.114;2023-08-20T00:15:57;100290.06;;;21.35;100.00
75538;BME280;64121;48.666;8.114;2023-08-20T00:18:23;100287.66;;;21.30;100.00
75538;BME280;64121;48.666;8.114;2023-08-20T00:20:48;100297.00;;;21.16;100.00
75538;BME280;64121;48.666;8.114;2023-08-20T00:23:16;100294.28;;;21.02;100.00
75538;BME280;64121;48.666;8.114;2023-08-20T00:25:42;100291.44;;;21.06;100.00
75538;BME280;64121;48.666;8.114;2023-08-20T00:28:08;100295.50;;;20.98;100.00
75538;BME280;64121;48.666;8.114;2023-08-20T00:30:33;100308.34;;;21.13;100.00
75538;BME280;64121;48.666;8.114;2023-08-20T00:32:59;100310.75;;;21.25;100.00
75538;BME280;64121;48.666;8.114;2023-08-20T00:35:24;100310.72;;;21.29;100.00
75538;BME280;64121;48.666;8.114;2023-08-20T00:37:50;100307.91;;;21.29;100.00
75538;BME280;64121;48.666;8.114;2023-08-20T00:40:16;100311.53;;;21.29;100.00
75538;BME280;64121;48.666;8.114;2023-08-20T00:42:42;100309.50;;;21.30;100.00
75538;BME280;64121;48.666;8.114;2023-08-20T00:45:08;100312.34;;;21.23;100.00
75538;BME280;64121;48.666;8.114;2023-08-20T00:47:34;100311.16;;;21.20;100.00
75538;BME280;64121;48.666;8.114;2023-08-20T00:49:59;100316.41;;;21.25;100.00
75538;BME280;64121;48.666;8.114;2023-08-20T00:52:25;100311.94;;;21.28;100.00
75538;BME280;64121;48.666;8.114;2023-08-20T00:54:50;100311.16;;;21.27;100.00
75538;BME280;64121;48.666;8.114;2023-08-20T00:57:18;100301.41;;;21.32;100.00
75538;BME280;64121;48.666;8.114;2023-08-20T00:59:44;100311.09;;;21.34;100.00
75538;BME280;64121;48.666;8.114;2023-08-20T01:02:12;100316.00;;;21.27;100.00
75538;BME280;64121;48.666;8.114;2023-08-20T01:04:37;100313.13;;;21.30;100.00
75538;BME280;64121;48.666;8.114;2023-08-20T01:07:10;100310.34;;;21.23;100.00
75538;BME280;64121;48.666;8.114;2023-08-20T01:09:45;100300.66;;;21.24;100.00
75538;BME280;64121;48.666;8.114;2023-08-20T01:12:13;100307.50;;;21.20;100.00
75538;BME280;64121;48.666;8.114;2023-08-20T01:14:40;100299.53;;;21.04;100.00
75538;BME280;64121;48.666;8.114;2023-08-20T01:17:05;100299.56;;;20.93;100.00
75538;BME280;64121;48.666;8.114;2023-08-20T01:19:31;100297.63;;;20.83;100.00
75538;BME280;64121;48.666;8.114;2023-08-20T01:22:09;100302.44;;;20.90;100.00
75538;BME280;64121;48.666;8.114;2023-08-20T01:24:46;100310.88;;;20.93;100.00
75538;BME280;64121;48.666;8.114;2023-08-20T01:27:26;100312.88;;;20.96;100.00
75538;BME280;64121;48.666;8.114;2023-08-20T01:29:55;100316.16;;;20.91;100.00
75538;BME280;64121;48.666;8.114;2023-08-20T01:32:22;100325.81;;;20.97;100.00
75538;BME280;64121;48.666;8.114;2023-08-20T01:34:48;100324.59;;;21.02;100.00
75538;BME280;64121;48.666;8.114;2023-08-20T01:37:13;100337.97;;;20.94;100.00
75538;BME280;64121;48.666;8.114;2023-08-20T01:39:39;100335.53;;;20.96;100.00
75538;BME280;64121;48.666;8.114;2023-08-20T01:42:05;100350.06;;;20.98;100.00
75538;BME280;64121;48.666;8.114;2023-08-20T01:44:30;100347.28;;;20.91;100.00
75538;BME280;64121;48.666;8.114;2023-08-20T01:46:57;100352.94;;;20.88;100.00
75538;BME280;64121;48.666;8.114;2023-08-20T01:49:22;100362.66;;;20.83;100.00
75538;BME280;64121;48.666;8.114;2023-08-20T01:51:48;100352.16;;;20.80;100.00
75538;BME280;64121;48.666;8.114;2023-08-20T01:54:13;100351.75;;;20.81;100.00
75538;BME280;64121;48.666;8.114;2023-08-20T01:56:38;100342.03;;;20.86;100.00
75538;BME280;64121;48.666;8.114;2023-08-20T01:59:04;100340.84;;;20.83;100.00
75538;BME280;64121;48.666;8.114;2023-08-20T02:01:29;100335.56;;;20.82;100.00
75538;BME280;64121;48.666;8.114;2023-08-20T02:03:56;100332.34;;;20.80;100.00
75538;BME280;64121;48.666;8.114;2023-08-20T02:06:21;100340.84;;;20.76;100.00
75538;BME280;64121;48.666;8.114;2023-08-20T02:08:46;100345.34;;;20.67;100.00
75538;BME280;64121;48.666;8.114;2023-08-20T02:11:12;100351.78;;;20.74;100.00
75538;BME280;64121;48.666;8.114;2023-08-20T02:13:37;100350.53;;;20.79;100.00
75538;BME280;64121;48.666;8.114;2023-08-20T02:16:03;100347.72;;;20.79;100.00
75538;BME280;64121;48.666;8.114;2023-08-20T02:18:29;100342.06;;;20.79;100.00
75538;BME280;64121;48.666;8.114;2023-08-20T02:20:56;100333.16;;;20.80;100.00
75538;BME280;64121;48.666;8.114;2023-08-20T02:23:21;100331.19;;;20.70;100.00
75538;BME280;64121;48.666;8.114;2023-08-20T02:25:47;100318.66;;;20.71;100.00
75538;BME280;64121;48.666;8.114;2023-08-20T02:28:12;100313.44;;;20.63;100.00
75538;BME280;64121;48.666;8.114;2023-08-20T02:30:40;100289.63;;;20.56;100.00
75538;BME280;64121;48.666;8.114;2023-08-20T02:33:05;100278.78;;;20.48;100.00
75538;BME280;64121;48.666;8.114;2023-08-20T02:35:31;100279.13;;;20.57;100.00
75538;BME280;64121;48.666;8.114;2023-08-20T02:37:57;100274.31;;;20.43;100.00
75538;BME280;64121;48.666;8.114;2023-08-20T02:40:23;100275.53;;;20.49;100.00
75538;BME280;64121;48.666;8.114;2023-08-20T02:42:48;100276.72;;;20.55;100.00
75538;BME280;64121;48.666;8.114;2023-08-20T02:45:13;100273.06;;;20.55;100.00
75538;BME280;64121;48.666;8.114;2023-08-20T02:47:39;100276.72;;;20.52;100.00
75538;BME280;64121;48.666;8.114;2023-08-20T02:50:05;100273.91;;;20.38;100.00
75538;BME280;64121;48.666;8.114;2023-08-20T02:52:30;100267.47;;;20.30;100.00
75538;BME280;64121;48.666;8.114;2023-08-20T02:54:57;100267.91;;;20.29;100.00
75538;BME280;64121;48.666;8.114;2023-08-20T02:57:22;100270.31;;;20.30;100.00
75538;BME280;64121;48.666;8.114;2023-08-20T02:59:47;100273.94;;;20.31;100.00
75538;BME280;64121;48.666;8.114;2023-08-20T03:02:13;100268.69;;;20.29;100.00
75538;BME280;64121;48.666;8.114;2023-08-20T03:04:38;100267.88;;;20.25;100.00
75538;BME280;64121;48.666;8.114;2023-08-20T03:07:03;100273.56;;;20.14;100.00
75538;BME280;64121;48.666;8.114;2023-08-20T03:09:29;100272.34;;;20.22;100.00
75538;BME280;64121;48.666;8.114;2023-08-20T03:11:55;100274.78;;;20.17;100.00
75538;BME280;64121;48.666;8.114;2023-08-20T03:14:21;100288.94;;;19.95;100.00
75538;BME280;64121;48.666;8.114;2023-08-20T03:16:46;100288.94;;;19.85;100.00
75538;BME280;64121;48.666;8.114;2023-08-20T03:19:14;100291.75;;;19.95;100.00
75538;BME280;64121;48.666;8.114;2023-08-20T03:21:40;100295.00;;;20.08;100.00
75538;BME280;64121;48.666;8.114;2023-08-20T03:24:07;100306.66;;;20.21;100.00
75538;BME280;64121;48.666;8.114;2023-08-20T03:26:32;100307.88;;;20.27;100.00
75538;BME280;64121;48.666;8.114;2023-08-20T03:28:59;100313.91;;;20.29;100.00
75538;BME280;64121;48.666;8.114;2023-08-20T03:31:24;100312.28;;;20.24;100.00
75538;BME280;64121;48.666;8.114;2023-08-20T03:33:50;100310.31;;;20.11;100.00
75538;BME280;64121;48.666;8.114;2023-08-20T03:36:15;100302.63;;;20.08;100.00
75538;BME280;64121;48.666;8.114;2023-08-20T03:38:40;100317.56;;;20.15;100.00
75538;BME280;64121;48.666;8.114;2023-08-20T03:41:06;100313.56;;;20.09;100.00
75538;BME280;64121;48.666;8.114;2023-08-20T03:43:31;100311.91;;;20.15;100.00
75538;BME280;64121;48.666;8.114;2023-08-20T03:45:58;100313.53;;;20.16;100.00
75538;BME280;64121;48.666;8.114;2023-08-20T03:48:23;100313.13;;;20.07;100.00
75538;BME280;64121;48.666;8.114;2023-08-20T03:50:49;100323.63;;;20.03;100.00
75538;BME280;64121;48.666;8.114;2023-08-20T03:53:14;100317.19;;;20.10;100.00
75538;BME280;64121;48.666;8.114;2023-08-20T03:55:40;100318.78;;;20.18;100.00
75538;BME280;64121;48.666;8.114;2023-08-20T03:58:05;100318.78;;;20.18;100.00
75538;BME280;64121;48.666;8.114;2023-08-20T04:00:31;100311.50;;;20.13;100.00
75538;BME280;64121;48.666;8.114;2023-08-20T04:02:57;100321.63;;;20.11;100.00
75538;BME280;64121;48.666;8.114;2023-08-20T04:05:22;100319.59;;;20.11;100.00
75538;BME280;64121;48.666;8.114;2023-08-20T04:07:48;100330.91;;;20.11;100.00
75538;BME280;64121;48.666;8.114;2023-08-20T04:10:13;100340.97;;;20.05;100.00
75538;BME280;64121;48.666;8.114;2023-08-20T04:12:39;100341.41;;;19.96;100.00
75538;BME280;64121;48.666;8.114;2023-08-20T04:15:04;100331.31;;;19.92;100.00
75538;BME280;64121;48.666;8.114;2023-08-20T04:17:30;100326.88;;;19.91;100.00
75538;BME280;64121;48.666;8.114;2023-08-20T04:19:57;100328.88;;;19.87;100.00
75538;BME280;64121;48.666;8.114;2023-08-20T04:22:22;100330.91;;;19.93;100.00
75538;BME280;64121;48.666;8.114;2023-08-20T04:24:47;100328.47;;;19.95;100.00
75538;BME280;64121;48.666;8.114;2023-08-20T04:27:13;100322.41;;;20.01;100.00
75538;BME280;64121;48.666;8.114;2023-08-20T04:29:38;100314.75;;;19.94;100.00
75538;BME280;64121;48.666;8.114;2023-08-20T04:32:04;100315.59;;;19.91;100.00
75538;BME280;64121;48.666;8.114;2023-08-20T04:34:29;100312.72;;;19.70;100.00
75538;BME280;64121;48.666;8.114;2023-08-20T04:36:56;100317.19;;;19.78;100.00
75538;BME280;64121;48.666;8.114;2023-08-20T04:39:21;100329.69;;;19.91;100.00
75538;BME280;64121;48.666;8.114;2023-08-20T04:41:46;100327.66;;;19.81;100.00
75538;BME280;64121;48.666;8.114;2023-08-20T04:44:12;100326.06;;;19.80;100.00
75538;BME280;64121;48.666;8.114;2023-08-20T04:46:37;100329.28;;;19.89;100.00
75538;BME280;64121;48.666;8.114;2023-08-20T04:49:03;100344.22;;;19.93;100.00
75538;BME280;64121;48.666;8.114;2023-08-20T04:51:28;100336.53;;;20.04;100.00
75538;BME280;64121;48.666;8.114;2023-08-20T04:53:55;100339.75;;;20.20;100.00
75538;BME280;64121;48.666;8.114;2023-08-20T04:56:20;100343.78;;;20.26;100.00
75538;BME280;64121;48.666;8.114;2023-08-20T04:58:45;100347.41;;;20.31;100.00
75538;BME280;64121;48.666;8.114;2023-08-20T05:01:11;100352.25;;;20.41;100.00
75538;BME280;64121;48.666;8.114;2023-08-20T05:03:36;100354.69;;;20.42;100.00
75538;BME280;64121;48.666;8.114;2023-08-20T05:06:02;100353.88;;;20.49;100.00
75538;BME280;64121;48.666;8.114;2023-08-20T05:08:27;100357.06;;;20.58;100.00
75538;BME280;64121;48.666;8.114;2023-08-20T05:10:54;100359.09;;;20.65;100.00
75538;BME280;64121;48.666;8.114;2023-08-20T05:13:19;100365.56;;;20.58;100.00
75538;BME280;64121;48.666;8.114;2023-08-20T05:15:46;100357.88;;;20.69;100.00
75538;BME280;64121;48.666;8.114;2023-08-20T05:18:11;100354.19;;;20.83;100.00
75538;BME280;64121;48.666;8.114;2023-08-20T05:20:36;100353.28;;;21.07;100.00
75538;BME280;64121;48.666;8.114;2023-08-20T05:23:02;100361.34;;;21.09;100.00
75538;BME280;64121;48.666;8.114;2023-08-20T05:25:27;100363.72;;;21.28;100.00
75538;BME280;64121;48.666;8.114;2023-08-20T05:27:54;100360.41;;;21.37;100.00
75538;BME280;64121;48.666;8.114;2023-08-20T05:30:19;100372.84;;;21.54;100.00
75538;BME280;64121;48.666;8.114;2023-08-20T05:32:45;100377.66;;;21.64;100.00
75538;BME280;64121;48.666;8.114;2023-08-20T05:35:10;100380.47;;;21.64;100.00
75538;BME280;64121;48.666;8.114;2023-08-20T05:37:35;100382.47;;;21.67;100.00
75538;BME280;64121;48.666;8.114;2023-08-20T05:40:01;100382.03;;;21.75;100.00
75538;BME280;64121;48.666;8.114;2023-08-20T05:42:26;100381.66;;;21.70;100.00
75538;BME280;64121;48.666;8.114;2023-08-20T05:44:53;100387.34;;;21.66;100.00
75538;BME280;64121;48.666;8.114;2023-08-20T05:47:18;100387.38;;;21.63;100.00
75538;BME280;64121;48.666;8.114;2023-08-20T05:49:44;100389.00;;;21.60;100.00
75538;BME280;64121;48.666;8.114;2023-08-20T05:52:09;100393.88;;;21.53;100.00
75538;BME280;64121;48.666;8.114;2023-08-20T05:54:34;100395.09;;;21.55;100.00
75538;BME280;64121;48.666;8.114;2023-08-20T05:57:00;100399.13;;;21.54;100.00
75538;BME280;64121;48.666;8.114;2023-08-20T05:59:25;100394.31;;;21.51;100.00
75538;BME280;64121;48.666;8.114;2023-08-20T06:01:52;100393.03;;;21.63;100.00
75538;BME280;64121;48.666;8.114;2023-08-20T06:04:18;100393.00;;;21.66;100.00
75538;BME280;64121;48.666;8.114;2023-08-20T06:06:44;100387.31;;;21.70;100.00
75538;BME280;64121;48.666;8.114;2023-08-20T06:09:09;100393.75;;;21.74;100.00
75538;BME280;64121;48.666;8.114;2023-08-20T06:11:34;100400.22;;;21.74;100.00
75538;BME280;64121;48.666;8.114;2023-08-20T06:14:00;100396.53;;;21.85;100.00
75538;BME280;64121;48.666;8.114;2023-08-20T06:16:25;100391.94;;;22.01;100.00
75538;BME280;64121;48.666;8.114;2023-08-20T06:18:52;100393.94;;;22.08;100.00
75538;BME280;64121;48.666;8.114;2023-08-20T06:21:17;100394.75;;;22.09;99.93
75538;BME280;64121;48.666;8.114;2023-08-20T06:23:42;100392.72;;;22.13;99.46
75538;BME280;64121;48.666;8.114;2023-08-20T06:26:08;100397.56;;;22.09;99.79
75538;BME280;64121;48.666;8.114;2023-08-20T06:28:33;100400.78;;;22.14;100.00
75538;BME280;64121;48.666;8.114;2023-08-20T06:30:58;100396.00;;;22.00;100.00
75538;BME280;64121;48.666;8.114;2023-08-20T06:33:24;100401.94;;;22.20;100.00
75538;BME280;64121;48.666;8.114;2023-08-20T06:35:50;100404.66;;;22.31;100.00
75538;BME280;64121;48.666;8.114;2023-08-20T06:38:16;100403.81;;;22.38;100.00
75538;BME280;64121;48.666;8.114;2023-08-20T06:40:41;100411.44;;;22.44;100.00
75538;BME280;64121;48.666;8.114;2023-08-20T06:43:06;100408.34;;;22.31;100.00
75538;BME280;64121;48.666;8.114;2023-08-20T06:45:32;100418.34;;;22.43;100.00
75538;BME280;64121;48.666;8.114;2023-08-20T06:47:57;100427.56;;;22.54;100.00
75538;BME280;64121;48.666;8.114;2023-08-20T06:50:22;100418.56;;;22.63;100.00
75538;BME280;64121;48.666;8.114;2023-08-20T06:52:49;100425.03;;;22.63;99.77
75538;BME280;64121;48.666;8.114;2023-08-20T06:55:14;100423.38;;;22.70;99.76
75538;BME280;64121;48.666;8.114;2023-08-20T06:57:40;100422.91;;;22.75;99.74
75538;BME280;64121;48.666;8.114;2023-08-20T07:00:06;100419.84;;;22.96;99.02
75538;BME280;64121;48.666;8.114;2023-08-20T07:02:32;100425.00;;;23.08;98.41
75538;BME280;64121;48.666;8.114;2023-08-20T07:04:57;100432.13;;;23.20;97.42
75538;BME280;64121;48.666;8.114;2023-08-20T07:07:23;100431.28;;;23.23;96.66
75538;BME280;64121;48.666;8.114;2023-08-20T07:09:49;100437.88;;;23.16;97.89
75538;BME280;64121;48.666;8.114;2023-08-20T07:12:15;100433.09;;;23.10;97.93
75538;BME280;64121;48.666;8.114;2023-08-20T07:14:40;100427.31;;;23.17;98.32
75538;BME280;64121;48.666;8.114;2023-08-20T07:17:05;100433.78;;;23.17;98.32
75538;BME280;64121;48.666;8.114;2023-08-20T07:19:31;100435.72;;;23.27;97.91
75538;BME280;64121;48.666;8.114;2023-08-20T07:21:56;100440.88;;;23.36;97.75
75538;BME280;64121;48.666;8.114;2023-08-20T07:24:22;100437.34;;;23.59;96.36
75538;BME280;64121;48.666;8.114;2023-08-20T07:26:48;100431.19;;;23.64;96.08
75538;BME280;64121;48.666;8.114;2023-08-20T07:29:14;100428.09;;;23.82;94.60
75538;BME280;64121;48.666;8.114;2023-08-20T07:31:39;100439.41;;;23.85;94.13
75538;BME280;64121;48.666;8.114;2023-08-20T07:34:04;100431.00;;;24.05;94.08
75538;BME280;64121;48.666;8.114;2023-08-20T07:36:30;100432.81;;;24.19;92.70
75538;BME280;64121;48.666;8.114;2023-08-20T07:38:55;100433.47;;;24.27;91.36
75538;BME280;64121;48.666;8.114;2023-08-20T07:41:21;100425.56;;;24.41;90.33
75538;BME280;64121;48.666;8.114;2023-08-20T07:43:48;100430.16;;;24.79;89.37
75538;BME280;64121;48.666;8.114;2023-08-20T07:46:14;100428.34;;;24.88;87.20
75538;BME280;64121;48.666;8.114;2023-08-20T07:48:40;100436.84;;;24.92;85.16
75538;BME280;64121;48.666;8.114;2023-08-20T07:51:06;100435.84;;;25.02;84.91
75538;BME280;64121;48.666;8.114;2023-08-20T07:53:32;100428.97;;;25.19;85.91
75538;BME280;64121;48.666;8.114;2023-08-20T07:55:59;100428.53;;;25.21;85.35
75538;BME280;64121;48.666;8.114;2023-08-20T07:58:24;100435.28;;;25.11;86.08
75538;BME280;64121;48.666;8.114;2023-08-20T08:00:51;100436.16;;;25.63;83.06
75538;BME280;64121;48.666;8.114;2023-08-20T08:03:17;100434.16;;;26.16;81.70
75538;BME280;64121;48.666;8.114;2023-08-20T08:05:46;100442.78;;;26.13;80.99
75538;BME280;64121;48.666;8.114;2023-08-20T08:08:11;100439.53;;;26.63;78.05
75538;BME280;64121;48.666;8.114;2023-08-20T08:10:37;100444.53;;;27.04;76.82
75538;BME280;64121;48.666;8.114;2023-08-20T08:13:02;100454.41;;;26.71;77.61
75538;BME280;64121;48.666;8.114;2023-08-20T08:15:27;100450.84;;;26.50;78.79
75538;BME280;64121;48.666;8.114;2023-08-20T08:17:54;100452.22;;;27.07;76.10
75538;BME280;64121;48.666;8.114;2023-08-20T08:20:20;100452.41;;;27.00;77.00
75538;BME280;64121;48.666;8.114;2023-08-20T08:22:45;100451.81;;;27.63;75.06
75538;BME280;64121;48.666;8.114;2023-08-20T08:25:10;100451.28;;;27.81;73.53
75538;BME280;64121;48.666;8.114;2023-08-20T08:27:36;100451.84;;;27.76;73.11
75538;BME280;64121;48.666;8.114;2023-08-20T08:30:01;100451.28;;;27.81;73.59
75538;BME280;64121;48.666;8.114;2023-08-20T08:32:27;100448.91;;;27.92;72.54
75538;BME280;64121;48.666;8.114;2023-08-20T08:34:53;100455.97;;;27.75;72.91
75538;BME280;64121;48.666;8.114;2023-08-20T08:37:19;100452.09;;;28.20;72.88
75538;BME280;64121;48.666;8.114;2023-08-20T08:39:44;100451.28;;;28.19;71.47
75538;BME280;64121;48.666;8.114;2023-08-20T08:42:10;100444.53;;;28.26;72.74
75538;BME280;64121;48.666;8.114;2023-08-20T08:44:37;100451.75;;;28.18;70.83
75538;BME280;64121;48.666;8.114;2023-08-20T08:47:03;100458.06;;;28.25;71.28
75538;BME280;64121;48.666;8.114;2023-08-20T08:49:30;100461.63;;;28.89;69.07
75538;BME280;64121;48.666;8.114;2023-08-20T08:51:57;100464.19;;;28.62;70.53
75538;BME280;64121;48.666;8.114;2023-08-20T08:54:23;100457.72;;;28.49;70.09
75538;BME280;64121;48.666;8.114;2023-08-20T08:56:49;100466.97;;;28.15;72.12
75538;BME280;64121;48.666;8.114;2023-08-20T08:59:15;100461.00;;;29.07;68.03
75538;BME280;64121;48.666;8.114;2023-08-20T09:01:40;100456.81;;;29.21;69.00
75538;BME280;64121;48.666;8.114;2023-08-20T09:04:06;100454.13;;;28.57;68.79
75538;BME280;64121;48.666;8.114;2023-08-20T09:06:44;100454.81;;;29.52;66.21
75538;BME280;64121;48.666;8.114;2023-08-20T09:09:11;100452.28;;;30.07;64.15
75538;BME280;64121;48.666;8.114;2023-08-20T09:11:36;100462.91;;;30.38;62.85
75538;BME280;64121;48.666;8.114;2023-08-20T09:14:02;100462.06;;;30.68;62.01
75538;BME280;64121;48.666;8.114;2023-08-20T09:16:30;100464.88;;;30.10;63.76
75538;BME280;64121;48.666;8.114;2023-08-20T09:18:59;100457.81;;;30.42;63.80
75538;BME280;64121;48.666;8.114;2023-08-20T09:21:26;100460.97;;;30.75;61.65
75538;BME280;64121;48.666;8.114;2023-08-20T09:23:52;100460.44;;;30.67;62.23
75538;BME280;64121;48.666;8.114;2023-08-20T09:26:18;100456.50;;;30.92;60.72
75538;BME280;64121;48.666;8.114;2023-08-20T09:28:45;100449.94;;;31.01;61.30
75538;BME280;64121;48.666;8.114;2023-08-20T09:31:11;100450.13;;;30.88;61.30
75538;BME280;64121;48.666;8.114;2023-08-20T09:33:36;100463.38;;;31.41;58.99
75538;BME280;64121;48.666;8.114;2023-08-20T09:36:03;100454.56;;;31.53;59.14
75538;BME280;64121;48.666;8.114;2023-08-20T09:38:28;100461.41;;;31.74;57.79
75538;BME280;64121;48.666;8.114;2023-08-20T09:40:54;100450.94;;;31.34;57.05
75538;BME280;64121;48.666;8.114;2023-08-20T09:43:23;100456.78;;;30.67;59.23
75538;BME280;64121;48.666;8.114;2023-08-20T09:45:49;100448.06;;;29.99;61.58
75538;BME280;64121;48.666;8.114;2023-08-20T09:48:18;100452.81;;;30.73;60.10
75538;BME280;64121;48.666;8.114;2023-08-20T09:50:46;100449.88;;;30.06;60.01
75538;BME280;64121;48.666;8.114;2023-08-20T09:53:17;100453.09;;;29.55;62.07
75538;BME280;64121;48.666;8.114;2023-08-20T09:55:49;100446.44;;;29.58;62.11
75538;BME280;64121;48.666;8.114;2023-08-20T09:58:15;100450.16;;;29.24;65.30
75538;BME280;64121;48.666;8.114;2023-08-20T10:00:42;100441.91;;;29.48;64.56
75538;BME280;64121;48.666;8.114;2023-08-20T10:03:08;100443.09;;;30.22;60.77
75538;BME280;64121;48.666;8.114;2023-08-20T10:05:33;100444.88;;;30.37;61.31
75538;BME280;64121;48.666;8.114;2023-08-20T10:08:00;100444.63;;;30.54;60.71
75538;BME280;64121;48.666;8.114;2023-08-20T10:10:26;100435.59;;;30.92;59.35
75538;BME280;64121;48.666;8.114;2023-08-20T10:12:52;100439.81;;;30.51;61.92
75538;BME280;64121;48.666;8.114;2023-08-20T10:15:17;100434.94;;;30.97;59.28
75538;BME280;64121;48.666;8.114;2023-08-20T10:17:45;100433.44;;;31.75;58.35
75538;BME280;64121;48.666;8.114;2023-08-20T10:20:13;100430.94;;;31.49;57.31
75538;BME280;64121;48.666;8.114;2023-08-20T10:22:40;100436.50;;;31.62;57.16
75538;BME280;64121;48.666;8.114;2023-08-20T10:25:07;100436.81;;;31.55;56.85
75538;BME280;64121;48.666;8.114;2023-08-20T10:27:34;100433.13;;;30.54;59.99
75538;BME280;64121;48.666;8.114;2023-08-20T10:29:59;100430.41;;;30.50;60.45
75538;BME280;64121;48.666;8.114;2023-08-20T10:32:43;100431.75;;;31.31;58.75
75538;BME280;64121;48.666;8.114;2023-08-20T10:35:10;100433.13;;;31.73;57.47
75538;BME280;64121;48.666;8.114;2023-08-20T10:37:35;100425.19;;;31.40;59.03
75538;BME280;64121;48.666;8.114;2023-08-20T10:40:01;100424.81;;;31.75;58.10
75538;BME280;64121;48.666;8.114;2023-08-20T10:42:26;100429.59;;;31.78;57.72
75538;BME280;64121;48.666;8.114;2023-08-20T10:44:56;100420.16;;;31.77;56.84
75538;BME280;64121;48.666;8.114;2023-08-20T10:47:22;100411.00;;;31.88;56.84
75538;BME280;64121;48.666;8.114;2023-08-20T10:49:50;100415.59;;;32.04;56.46
75538;BME280;64121;48.666;8.114;2023-08-20T10:52:17;100412.25;;;31.45;57.31
75538;BME280;64121;48.666;8.114;2023-08-20T10:54:43;100409.22;;;32.00;56.32
75538;BME280;64121;48.666;8.114;2023-08-20T10:57:08;100403.88;;;32.07;56.31
75538;BME280;64121;48.666;8.114;2023-08-20T10:59:39;100400.28;;;32.55;56.48
75538;BME280;64121;48.666;8.114;2023-08-20T11:02:07;100400.94;;;32.73;55.13
75538;BME280;64121;48.666;8.114;2023-08-20T11:04:36;100399.38;;;33.11;55.87
75538;BME280;64121;48.666;8.114;2023-08-20T11:07:02;100394.78;;;33.19;52.96
75538;BME280;64121;48.666;8.114;2023-08-20T11:09:30;100399.47;;;33.31;53.70
75538;BME280;64121;48.666;8.114;2023-08-20T11:11:56;100393.84;;;33.66;51.35
75538;BME280;64121;48.666;8.114;2023-08-20T11:14:22;100403.06;;;31.74;53.97
75538;BME280;64121;48.666;8.114;2023-08-20T11:16:48;100391.34;;;32.91;52.11
75538;BME280;64121;48.666;8.114;2023-08-20T11:19:14;100394.44;;;33.56;51.07
75538;BME280;64121;48.666;8.114;2023-08-20T11:21:40;100396.69;;;33.22;52.22
75538;BME280;64121;48.666;8.114;2023-08-20T11:24:06;100387.22;;;33.07;53.14
75538;BME280;64121;48.666;8.114;2023-08-20T11:26:34;100389.50;;;33.03;51.69
75538;BME280;64121;48.666;8.114;2023-08-20T11:28:59;100389.97;;;32.63;55.15
75538;BME280;64121;48.666;8.114;2023-08-20T11:31:25;100390.16;;;32.83;52.95
75538;BME280;64121;48.666;8.114;2023-08-20T11:33:50;100385.09;;;32.54;52.86
75538;BME280;64121;48.666;8.114;2023-08-20T11:36:16;100383.91;;;32.61;53.03
75538;BME280;64121;48.666;8.114;2023-08-20T11:38:42;100375.84;;;32.89;53.21
75538;BME280;64121;48.666;8.114;2023-08-20T11:41:07;100383.91;;;32.04;56.32
75538;BME280;64121;48.666;8.114;2023-08-20T11:43:34;100378.56;;;32.44;55.87
75538;BME280;64121;48.666;8.114;2023-08-20T11:45:59;100370.09;;;33.03;53.38
75538;BME280;64121;48.666;8.114;2023-08-20T11:48:25;100370.09;;;32.17;54.17
75538;BME280;64121;48.666;8.114;2023-08-20T11:50:50;100363.84;;;32.66;55.39
75538;BME280;64121;48.666;8.114;2023-08-20T11:53:20;100367.91;;;32.98;52.51
75538;BME280;64121;48.666;8.114;2023-08-20T11:55:46;100365.41;;;33.80;51.23
75538;BME280;64121;48.666;8.114;2023-08-20T11:58:12;100362.84;;;33.08;53.07
75538;BME280;64121;48.666;8.114;2023-08-20T12:00:39;100361.69;;;33.59;51.29
75538;BME280;64121;48.666;8.114;2023-08-20T12:03:04;100366.63;;;32.99;52.93
75538;BME280;64121;48.666;8.114;2023-08-20T12:05:30;100370.38;;;32.91;52.72
75538;BME280;64121;48.666;8.114;2023-08-20T12:07:56;100367.94;;;33.57;50.52
75538;BME280;64121;48.666;8.114;2023-08-20T12:10:22;100372.44;;;33.88;50.57
75538;BME280;64121;48.666;8.114;2023-08-20T12:12:47;100370.25;;;33.38;52.73
75538;BME280;64121;48.666;8.114;2023-08-20T12:15:13;100365.66;;;33.17;53.80
75538;BME280;64121;48.666;8.114;2023-08-20T12:17:39;100360.25;;;32.71;52.60
75538;BME280;64121;48.666;8.114;2023-08-20T12:20:06;100362.16;;;32.98;54.01
75538;BME280;64121;48.666;8.114;2023-08-20T12:22:31;100354.63;;;33.45;51.78
75538;BME280;64121;48.666;8.114;2023-08-20T12:24:57;100358.81;;;33.29;51.74
75538;BME280;64121;48.666;8.114;2023-08-20T12:27:22;100360.75;;;32.94;52.19
75538;BME280;64121;48.666;8.114;2023-08-20T12:29:47;100349.66;;;33.46;51.59
75538;BME280;64121;48.666;8.114;2023-08-20T12:32:13;100356.91;;;33.85;50.45
75538;BME280;64121;48.666;8.114;2023-08-20T12:34:39;100346.16;;;33.86;51.36
75538;BME280;64121;48.666;8.114;2023-08-20T12:37:05;100346.44;;;33.73;49.91
75538;BME280;64121;48.666;8.114;2023-08-20T12:39:30;100346.28;;;33.47;50.54